Time;durP1;ratioP1;P1;durP2;ratioP2;P2;SDS_P1;SDS_P2;PMS_P1;PMS_P2;Temp;Humidity;BMP_temperature;BMP_pressure;BME280_temperature;BME280_humidity;BME280_pressure;Samples;Min_cycle;Max_cycle;Signal;HPM_P1;HPM_P2
2022/08/16 00:00:11;;;;;;;1999.90;999.90;;;;;;;-144.89;100.00;52852.59;5051639;28;20041;-53
2022/08/16 00:03:08;;;;;;;1999.90;999.90;;;;;;;-144.89;100.00;52852.59;5051410;28;20541;-55
2022/08/16 00:05:52;;;;;;;1999.90;999.90;;;;;;;-144.89;100.00;52852.59;5057846;28;20545;-57
2022/08/16 00:08:37;;;;;;;1999.90;999.90;;;;;;;-144.89;100.00;52852.59;5057756;28;20121;-52
2022/08/16 00:11:21;;;;;;;1999.90;999.90;;;;;;;-144.89;100.00;52852.59;5055554;28;20059;-55
2022/08/16 00:14:10;;;;;;;1999.90;999.90;;;;;;;-144.89;100.00;52852.59;5052444;28;20060;-54
2022/08/16 00:16:56;;;;;;;1999.90;999.90;;;;;;;-144.89;100.00;52852.59;5050924;28;20501;-52
2022/08/16 00:19:41;;;;;;;1999.90;999.90;;;;;;;-144.89;100.00;52852.59;5057418;28;20126;-55
2022/08/16 00:22:25;;;;;;;1999.90;999.90;;;;;;;-144.89;100.00;52852.59;5051288;28;20059;-58
2022/08/16 00:25:13;;;;;;;1999.90;999.90;;;;;;;-144.89;100.00;52852.59;5050316;28;20064;-55
2022/08/16 00:27:59;;;;;;;1999.90;999.90;;;;;;;-144.89;100.00;52852.59;5050220;28;20127;-55
2022/08/16 00:30:44;;;;;;;1999.90;999.90;;;;;;;-144.89;100.00;52852.59;5052681;28;20049;-52
2022/08/16 00:33:28;;;;;;;1999.90;999.90;;;;;;;-144.89;100.00;52852.59;5058263;28;20082;-55
2022/08/16 00:36:12;;;;;;;1999.90;999.90;;;;;;;-144.89;100.00;52852.59;5056156;28;20063;-54
2022/08/16 00:38:57;;;;;;;1999.90;999.90;;;;;;;-144.89;100.00;52852.59;5057838;28;20044;-53
2022/08/16 00:41:43;;;;;;;1999.90;999.90;;;;;;;-144.89;100.00;52852.59;5059302;28;20549;-54
2022/08/16 00:44:28;;;;;;;1999.90;999.90;;;;;;;-144.89;100.00;52852.59;5055665;28;20044;-56
2022/08/16 00:47:16;;;;;;;1999.90;999.90;;;;;;;-144.89;100.00;52852.59;5057045;28;21185;-56
2022/08/16 00:50:01;;;;;;;1999.90;999.90;;;;;;;-144.89;100.00;52852.59;5054936;28;20048;-55
2022/08/16 00:52:46;;;;;;;1999.90;999.90;;;;;;;-144.89;100.00;52852.59;5051215;28;20384;-55
2022/08/16 00:55:33;;;;;;;1999.90;999.90;;;;;;;-144.89;100.00;52852.59;5051625;28;20071;-55
2022/08/16 00:58:21;;;;;;;1999.90;999.90;;;;;;;-144.89;100.00;52852.59;5053337;28;20067;-56
2022/08/16 01:01:06;;;;;;;1999.90;999.90;;;;;;;-144.89;100.00;52852.59;5055621;28;20049;-54
2022/08/16 01:03:53;;;;;;;1999.90;999.90;;;;;;;-144.89;100.00;52852.59;5057482;28;20051;-52
2022/08/16 01:06:38;;;;;;;1999.90;999.90;;;;;;;-144.89;100.00;52852.59;5057154;28;20094;-56
2022/08/16 01:09:25;;;;;;;1999.90;999.90;;;;;;;-144.89;100.00;52852.59;5055062;28;20059;-54
2022/08/16 01:12:10;;;;;;;1999.90;999.90;;;;;;;-144.89;100.00;52852.59;5054676;28;20534;-52
2022/08/16 01:14:58;;;;;;;1999.90;999.90;;;;;;;-144.89;100.00;52852.59;5054081;28;20083;-53
2022/08/16 01:17:46;;;;;;;1999.90;999.90;;;;;;;-144.89;100.00;52852.59;5054104;28;20395;-54
2022/08/16 01:20:36;;;;;;;1999.90;999.90;;;;;;;-144.89;100.00;52852.59;5053015;28;20550;-55
2022/08/16 01:23:29;;;;;;;1999.90;999.90;;;;;;;-144.89;100.00;52852.59;5054761;28;20107;-56
2022/08/16 01:26:15;;;;;;;1999.90;999.90;;;;;;;-144.89;100.00;52852.59;5052013;28;20056;-52
2022/08/16 01:29:05;;;;;;;1999.90;999.90;;;;;;;-144.89;100.00;52852.59;5053368;28;20053;-55
2022/08/16 01:31:49;;;;;;;1999.90;999.90;;;;;;;-144.89;100.00;52852.59;5052194;28;20048;-53
2022/08/16 01:34:34;;;;;;;1999.90;999.90;;;;;;;-144.89;100.00;52852.59;5051248;28;20109;-53
2022/08/16 01:37:20;;;;;;;1999.90;999.90;;;;;;;-144.89;100.00;52852.59;5052239;28;20055;-55
2022/08/16 01:40:06;;;;;;;1999.90;999.90;;;;;;;-144.89;100.00;52852.59;5053910;28;20584;-58
2022/08/16 01:42:51;;;;;;;1999.90;999.90;;;;;;;-144.89;100.00;52852.59;5054229;28;20044;-54
2022/08/16 01:45:36;;;;;;;1999.90;999.90;;;;;;;-144.89;100.00;52852.59;5052381;28;20118;-51
2022/08/16 01:48:24;;;;;;;1999.90;999.90;;;;;;;-144.89;100.00;52852.59;5051519;28;20459;-54
2022/08/16 01:51:13;;;;;;;1999.90;999.90;;;;;;;-144.89;100.00;52852.59;5054806;28;20044;-55
2022/08/16 01:53:58;;;;;;;1999.90;999.90;;;;;;;-144.89;100.00;52852.59;5054876;28;20044;-56
2022/08/16 01:56:47;;;;;;;1999.90;999.90;;;;;;;-144.89;100.00;52852.59;5052164;28;20987;-52
2022/08/16 01:59:34;;;;;;;1999.90;999.90;;;;;;;-144.89;100.00;52852.59;5051632;28;20098;-52
2022/08/16 02:02:19;;;;;;;1999.90;999.90;;;;;;;-144.89;100.00;52852.59;5054636;28;20194;-56
2022/08/16 02:05:04;;;;;;;1999.90;999.90;;;;;;;-144.89;100.00;52852.59;5054194;28;20063;-55
2022/08/16 02:07:48;;;;;;;1999.90;999.90;;;;;;;-144.89;100.00;52852.59;5051683;28;20127;-55
2022/08/16 02:10:37;;;;;;;1999.90;999.90;;;;;;;-144.89;100.00;52852.59;5052751;28;20087;-54
2022/08/16 02:13:21;;;;;;;1999.90;999.90;;;;;;;-144.89;100.00;52852.59;5055427;28;20445;-52
2022/08/16 02:16:08;;;;;;;1999.90;999.90;;;;;;;-144.89;100.00;52852.59;5054387;28;20083;-56
2022/08/16 02:18:52;;;;;;;1999.90;999.90;;;;;;;-144.89;100.00;52852.59;5056814;28;20142;-56
2022/08/16 02:21:37;;;;;;;1999.90;999.90;;;;;;;-144.89;100.00;52852.59;5050796;28;20094;-54
2022/08/16 02:24:21;;;;;;;1999.90;999.90;;;;;;;-144.89;100.00;52852.59;5056878;28;20086;-51
2022/08/16 02:27:06;;;;;;;1999.90;999.90;;;;;;;-144.89;100.00;52852.59;5051302;28;20091;-56
2022/08/16 02:29:50;;;;;;;1999.90;999.90;;;;;;;-144.89;100.00;52852.59;5048978;28;20058;-53
2022/08/16 02:32:35;;;;;;;1999.90;999.90;;;;;;;-144.89;100.00;52852.59;5056232;28;20103;-55
2022/08/16 02:35:21;;;;;;;1999.90;999.90;;;;;;;-144.89;100.00;52852.59;5051593;28;20063;-55
2022/08/16 02:38:07;;;;;;;1999.90;999.90;;;;;;;-144.89;100.00;52852.59;5054704;28;20082;-54
2022/08/16 02:40:53;;;;;;;1999.90;999.90;;;;;;;-144.89;100.00;52852.59;5054304;28;20087;-52
2022/08/16 02:43:37;;;;;;;1999.90;999.90;;;;;;;-144.89;100.00;52852.59;5054440;28;20091;-54
2022/08/16 02:46:23;;;;;;;1999.90;999.90;;;;;;;-144.89;100.00;52852.59;5054565;28;20106;-52
2022/08/16 02:49:09;;;;;;;1999.90;999.90;;;;;;;-144.89;100.00;52852.59;5046401;28;20982;-52
2022/08/16 02:51:54;;;;;;;1999.90;999.90;;;;;;;-144.89;100.00;52852.59;5053365;28;20044;-54
2022/08/16 02:54:38;;;;;;;1999.90;999.90;;;;;;;-144.89;100.00;52852.59;5057835;28;20075;-53
2022/08/16 02:57:23;;;;;;;1999.90;999.90;;;;;;;-144.89;100.00;52852.59;5053209;28;20044;-53
2022/08/16 03:00:11;;;;;;;1999.90;999.90;;;;;;;-144.89;100.00;52852.59;5052911;28;20082;-55
2022/08/16 03:02:57;;;;;;;1999.90;999.90;;;;;;;-144.89;100.00;52852.59;5057847;28;20084;-55
2022/08/16 03:05:41;;;;;;;1999.90;999.90;;;;;;;-144.89;100.00;52852.59;5051511;28;20560;-55
2022/08/16 03:08:26;;;;;;;1999.90;999.90;;;;;;;-144.89;100.00;52852.59;5053270;28;20523;-55
2022/08/16 03:11:11;;;;;;;1999.90;999.90;;;;;;;-144.89;100.00;52852.59;5051014;28;20098;-53
2022/08/16 03:13:57;;;;;;;1999.90;999.90;;;;;;;-144.89;100.00;52852.59;5054395;28;20064;-54
2022/08/16 03:16:42;;;;;;;1999.90;999.90;;;;;;;-144.89;100.00;52852.59;5051128;28;20864;-54
2022/08/16 03:19:30;;;;;;;1999.90;999.90;;;;;;;-144.89;100.00;52852.59;5058715;28;20075;-56
2022/08/16 03:22:17;;;;;;;1999.90;999.90;;;;;;;-144.89;100.00;52852.59;5058519;28;20048;-53
2022/08/16 03:25:05;;;;;;;1999.90;999.90;;;;;;;-144.89;100.00;52852.59;5056938;28;20097;-53
2022/08/16 03:27:51;;;;;;;1999.90;999.90;;;;;;;-144.89;100.00;52852.59;5052764;28;20383;-52
2022/08/16 03:30:36;;;;;;;1999.90;999.90;;;;;;;-144.89;100.00;52852.59;5051780;28;20128;-53
2022/08/16 03:33:23;;;;;;;1999.90;999.90;;;;;;;-144.89;100.00;52852.59;5056382;28;20129;-55
2022/08/16 03:36:12;;;;;;;1999.90;999.90;;;;;;;-144.89;100.00;52852.59;5053886;28;20040;-53
2022/08/16 03:38:59;;;;;;;1999.90;999.90;;;;;;;-144.89;100.00;52852.59;5054414;28;20103;-57
2022/08/16 03:41:44;;;;;;;1999.90;999.90;;;;;;;-144.89;100.00;52852.59;5052991;28;20163;-55
2022/08/16 03:44:29;;;;;;;1999.90;999.90;;;;;;;-144.89;100.00;52852.59;5052377;28;20480;-53
2022/08/16 03:47:14;;;;;;;1999.90;999.90;;;;;;;-144.89;100.00;52852.59;5052688;28;20079;-51
2022/08/16 03:50:00;;;;;;;1999.90;999.90;;;;;;;-144.89;100.00;52852.59;5052579;28;20060;-52
2022/08/16 03:52:44;;;;;;;1999.90;999.90;;;;;;;-144.89;100.00;52852.59;5057427;28;20063;-52
2022/08/16 03:55:31;;;;;;;1999.90;999.90;;;;;;;-144.89;100.00;52852.59;5054743;28;20084;-56
2022/08/16 03:58:16;;;;;;;1999.90;999.90;;;;;;;-144.89;100.00;52852.59;5053846;28;20063;-52
2022/08/16 04:01:02;;;;;;;1999.90;999.90;;;;;;;-144.89;100.00;52852.59;5055232;28;20426;-55
2022/08/16 04:03:49;;;;;;;1999.90;999.90;;;;;;;-144.89;100.00;52852.59;5056187;28;20044;-56
2022/08/16 04:06:34;;;;;;;1999.90;999.90;;;;;;;-144.89;100.00;52852.59;5053536;28;20037;-57
2022/08/16 04:09:19;;;;;;;1999.90;999.90;;;;;;;-144.89;100.00;52852.59;5050793;28;20143;-52
2022/08/16 04:12:05;;;;;;;1999.90;999.90;;;;;;;-144.89;100.00;52852.59;5051696;28;20076;-54
2022/08/16 04:14:50;;;;;;;1999.90;999.90;;;;;;;-144.89;100.00;52852.59;5055532;28;20775;-57
2022/08/16 04:17:35;;;;;;;1999.90;999.90;;;;;;;-144.89;100.00;52852.59;5057569;28;20083;-57
2022/08/16 04:20:20;;;;;;;1999.90;999.90;;;;;;;-144.89;100.00;52852.59;5054295;28;20503;-54
2022/08/16 04:23:06;;;;;;;1999.90;999.90;;;;;;;-144.89;100.00;52852.59;5053862;28;20143;-54
2022/08/16 04:25:51;;;;;;;1999.90;999.90;;;;;;;-144.89;100.00;52852.59;5054110;28;20518;-53
2022/08/16 04:28:36;;;;;;;1999.90;999.90;;;;;;;-144.89;100.00;52852.59;5055250;28;20090;-52
2022/08/16 04:31:21;;;;;;;1999.90;999.90;;;;;;;-144.89;100.00;52852.59;5051217;28;20045;-53
2022/08/16 04:34:06;;;;;;;1999.90;999.90;;;;;;;-144.89;100.00;52852.59;5050642;28;20053;-54
2022/08/16 04:36:51;;;;;;;1999.90;999.90;;;;;;;-144.89;100.00;52852.59;5050644;28;20052;-53
2022/08/16 04:39:36;;;;;;;1999.90;999.90;;;;;;;-144.89;100.00;52852.59;5052067;28;20098;-54
2022/08/16 04:42:21;;;;;;;1999.90;999.90;;;;;;;-144.89;100.00;52852.59;5053840;28;20086;-54
2022/08/16 04:45:12;;;;;;;1999.90;999.90;;;;;;;-144.89;100.00;52852.59;5051258;28;21124;-56
2022/08/16 04:47:58;;;;;;;1999.90;999.90;;;;;;;-144.89;100.00;52852.59;5052153;28;20063;-56
2022/08/16 04:50:50;;;;;;;1999.90;999.90;;;;;;;-144.89;100.00;52852.59;5053885;28;21849;-57
2022/08/16 04:53:37;;;;;;;1999.90;999.90;;;;;;;-144.89;100.00;52852.59;5050108;28;20048;-56
2022/08/16 04:56:22;;;;;;;1999.90;999.90;;;;;;;-144.89;100.00;52852.59;5049480;28;20048;-56
2022/08/16 04:59:09;;;;;;;1999.90;999.90;;;;;;;-144.89;100.00;52852.59;5050709;28;20106;-57
2022/08/16 05:01:55;;;;;;;1999.90;999.90;;;;;;;-144.89;100.00;52852.59;5050286;28;20100;-57
2022/08/16 05:04:40;;;;;;;1999.90;999.90;;;;;;;-144.89;100.00;52852.59;5050907;28;20044;-57
2022/08/16 05:07:25;;;;;;;1999.90;999.90;;;;;;;-144.89;100.00;52852.59;5054929;28;20079;-58
2022/08/16 05:10:21;;;;;;;1999.90;999.90;;;;;;;-144.89;100.00;52852.59;5053350;28;20076;-58
2022/08/16 05:13:06;;;;;;;1999.90;999.90;;;;;;;-144.89;100.00;52852.59;5053484;28;20083;-58
2022/08/16 05:15:51;;;;;;;1999.90;999.90;;;;;;;-144.89;100.00;52852.59;5048696;28;20105;-58
2022/08/16 05:18:39;;;;;;;1999.90;999.90;;;;;;;-144.89;100.00;52852.59;5046721;28;20076;-58
2022/08/16 05:21:24;;;;;;;1999.90;999.90;;;;;;;-144.89;100.00;52852.59;5048376;28;20486;-58
2022/08/16 05:24:12;;;;;;;1999.90;999.90;;;;;;;-144.89;100.00;52852.59;5050272;28;20616;-58
2022/08/16 05:26:57;;;;;;;1999.90;999.90;;;;;;;-144.89;100.00;52852.59;5047611;28;20052;-59
2022/08/16 05:29:45;;;;;;;1999.90;999.90;;;;;;;-144.89;100.00;52852.59;5055306;28;20537;-58
2022/08/16 05:32:34;;;;;;;1999.90;999.90;;;;;;;-144.89;100.00;52852.59;5055817;28;20159;-58
2022/08/16 05:35:21;;;;;;;1999.90;999.90;;;;;;;-144.89;100.00;52852.59;5052578;28;20056;-58
2022/08/16 05:38:26;;;;;;;1999.90;999.90;;;;;;;-144.89;100.00;52852.59;5054193;28;20391;-59
2022/08/16 05:41:13;;;;;;;1999.90;999.90;;;;;;;-144.89;100.00;52852.59;5054965;28;20071;-58
2022/08/16 05:44:00;;;;;;;1999.90;999.90;;;;;;;-144.89;100.00;52852.59;5064697;28;20495;-59
2022/08/16 05:46:56;;;;;;;1999.90;999.90;;;;;;;-144.89;100.00;52852.59;5056777;28;20075;-58
2022/08/16 05:49:41;;;;;;;1999.90;999.90;;;;;;;-144.89;100.00;52852.59;5060015;28;20859;-59
2022/08/16 05:52:28;;;;;;;1999.90;999.90;;;;;;;-144.89;100.00;52852.59;5055281;28;20059;-59
2022/08/16 05:55:12;;;;;;;1999.90;999.90;;;;;;;-144.89;100.00;52852.59;5055165;28;20823;-59
2022/08/16 05:57:58;;;;;;;1999.90;999.90;;;;;;;-144.89;100.00;52852.59;5052239;28;20053;-59
2022/08/16 06:00:42;;;;;;;1999.90;999.90;;;;;;;-144.89;100.00;52852.59;5053428;28;20045;-58
2022/08/16 06:03:27;;;;;;;1999.90;999.90;;;;;;;-144.89;100.00;52852.59;5055764;28;20087;-60
2022/08/16 06:06:15;;;;;;;1999.90;999.90;;;;;;;-144.89;100.00;52852.59;5057704;28;20047;-60
2022/08/16 06:09:00;;;;;;;1999.90;999.90;;;;;;;-144.89;100.00;52852.59;5058398;28;20040;-59
2022/08/16 06:11:45;;;;;;;1999.90;999.90;;;;;;;-144.89;100.00;52852.59;5053558;28;20114;-58
2022/08/16 06:14:31;;;;;;;1999.90;999.90;;;;;;;-144.89;100.00;52852.59;5059711;28;20055;-60
2022/08/16 06:17:16;;;;;;;1999.90;999.90;;;;;;;-144.89;100.00;52852.59;5054304;28;20053;-59
2022/08/16 06:20:00;;;;;;;1999.90;999.90;;;;;;;-144.89;100.00;52852.59;5057902;28;20048;-59
2022/08/16 06:22:45;;;;;;;1999.90;999.90;;;;;;;-144.89;100.00;52852.59;5056045;28;20426;-58
2022/08/16 06:25:32;;;;;;;1999.90;999.90;;;;;;;-144.89;100.00;52852.59;5057290;28;20044;-59
2022/08/16 06:28:16;;;;;;;1999.90;999.90;;;;;;;-144.89;100.00;52852.59;5056974;28;20086;-59
2022/08/16 06:31:01;;;;;;;1999.90;999.90;;;;;;;-144.89;100.00;52852.59;5055420;28;20083;-59
2022/08/16 06:33:47;;;;;;;1999.90;999.90;;;;;;;-144.89;100.00;52852.59;5057001;28;20049;-59
2022/08/16 06:36:34;;;;;;;1999.90;999.90;;;;;;;-144.89;100.00;52852.59;5055149;28;20079;-59
2022/08/16 06:39:39;;;;;;;1999.90;999.90;;;;;;;-144.89;100.00;52852.59;5063405;28;20130;-59
2022/08/16 06:42:27;;;;;;;1999.90;999.90;;;;;;;-144.89;100.00;52852.59;5060677;28;20052;-58
2022/08/16 06:45:37;;;;;;;1999.90;999.90;;;;;;;-144.89;100.00;52852.59;5054074;28;20944;-59
2022/08/16 06:48:28;;;;;;;1999.90;999.90;;;;;;;-144.89;100.00;52852.59;5060497;28;20071;-59
2022/08/16 06:51:12;;;;;;;1999.90;999.90;;;;;;;-144.89;100.00;52852.59;5057023;28;20046;-59
2022/08/16 06:53:57;;;;;;;1999.90;999.90;;;;;;;-144.89;100.00;52852.59;5054954;28;20091;-59
2022/08/16 06:56:42;;;;;;;1999.90;999.90;;;;;;;-144.89;100.00;52852.59;5037374;28;20449;-59
2022/08/16 06:59:31;;;;;;;1999.90;999.90;;;;;;;-144.89;100.00;52852.59;5049049;28;20647;-59
2022/08/16 07:02:17;;;;;;;1999.90;999.90;;;;;;;-144.89;100.00;52852.59;5065145;28;20091;-59
2022/08/16 07:05:05;;;;;;;1999.90;999.90;;;;;;;-144.89;100.00;52852.59;5052328;28;20055;-59
2022/08/16 07:07:53;;;;;;;1999.90;999.90;;;;;;;-144.89;100.00;52852.59;5052801;28;20446;-59
2022/08/16 07:10:38;;;;;;;1999.90;999.90;;;;;;;-144.89;100.00;52852.59;5058959;28;20084;-61
2022/08/16 07:13:22;;;;;;;1999.90;999.90;;;;;;;-144.89;100.00;52852.59;5059576;28;20048;-59
2022/08/16 07:16:13;;;;;;;1999.90;999.90;;;;;;;-144.89;100.00;52852.59;5052090;28;20067;-60
2022/08/16 07:18:58;;;;;;;1999.90;999.90;;;;;;;-144.89;100.00;52852.59;5054371;28;20411;-59
2022/08/16 07:21:44;;;;;;;1999.90;999.90;;;;;;;-144.89;100.00;52852.59;5053050;28;20044;-60
2022/08/16 07:24:30;;;;;;;1999.90;999.90;;;;;;;-144.89;100.00;52852.59;5053113;28;20068;-60
2022/08/16 07:27:17;;;;;;;1999.90;999.90;;;;;;;-144.89;100.00;52852.59;5058643;28;20582;-60
2022/08/16 07:30:05;;;;;;;1999.90;999.90;;;;;;;-144.89;100.00;52852.59;5055424;28;20055;-60
2022/08/16 07:32:50;;;;;;;1999.90;999.90;;;;;;;-144.89;100.00;52852.59;5054601;28;20045;-60
2022/08/16 07:35:36;;;;;;;1999.90;999.90;;;;;;;-144.89;100.00;52852.59;5055337;28;20100;-60
2022/08/16 07:38:21;;;;;;;1999.90;999.90;;;;;;;-144.89;100.00;52852.59;5057275;28;20169;-60
2022/08/16 07:41:10;;;;;;;1999.90;999.90;;;;;;;-144.89;100.00;52852.59;5050470;28;20055;-59
2022/08/16 07:43:59;;;;;;;1999.90;999.90;;;;;;;-144.89;100.00;52852.59;5054526;28;20075;-60
2022/08/16 07:46:45;;;;;;;1999.90;999.90;;;;;;;-144.89;100.00;52852.59;5054521;28;20040;-60
2022/08/16 07:49:35;;;;;;;1999.90;999.90;;;;;;;-144.89;100.00;52852.59;5049787;28;20075;-59
2022/08/16 07:52:23;;;;;;;1999.90;999.90;;;;;;;-144.89;100.00;52852.59;5058874;28;20048;-60
2022/08/16 07:55:09;;;;;;;1999.90;999.90;;;;;;;-144.89;100.00;52852.59;5053040;28;20098;-60
2022/08/16 07:57:55;;;;;;;1999.90;999.90;;;;;;;-144.89;100.00;52852.59;5055934;28;20048;-60
2022/08/16 08:00:40;;;;;;;1999.90;999.90;;;;;;;-144.89;100.00;52852.59;5050623;28;20079;-60
2022/08/16 08:03:25;;;;;;;1999.90;999.90;;;;;;;-144.89;100.00;52852.59;5042150;28;20143;-60
2022/08/16 08:06:12;;;;;;;1999.90;999.90;;;;;;;-144.89;100.00;52852.59;5054453;28;20523;-60
2022/08/16 08:08:57;;;;;;;1999.90;999.90;;;;;;;-144.89;100.00;52852.59;5054782;28;20063;-60
2022/08/16 08:11:44;;;;;;;1999.90;999.90;;;;;;;-144.89;100.00;52852.59;5053140;28;20090;-60
2022/08/16 08:14:29;;;;;;;1999.90;999.90;;;;;;;-144.89;100.00;52852.59;5052734;28;20510;-60
2022/08/16 08:17:16;;;;;;;1999.90;999.90;;;;;;;-144.89;100.00;52852.59;5056968;28;20083;-60
2022/08/16 08:20:01;;;;;;;1999.90;999.90;;;;;;;-144.89;100.00;52852.59;5060645;28;20044;-60
2022/08/16 08:22:48;;;;;;;1999.90;999.90;;;;;;;-144.89;100.00;52852.59;5053522;28;20083;-60
2022/08/16 08:25:33;;;;;;;1999.90;999.90;;;;;;;-144.89;100.00;52852.59;5056784;28;20064;-60
2022/08/16 08:28:18;;;;;;;1999.90;999.90;;;;;;;-144.89;100.00;52852.59;5060211;28;20091;-60
2022/08/16 08:31:12;;;;;;;1999.90;999.90;;;;;;;-144.89;100.00;52852.59;4941456;28;10000811;-61
2022/08/16 08:33:59;;;;;;;1999.90;999.90;;;;;;;-144.89;100.00;52852.59;4503797;28;10001625;-61
2022/08/16 08:39:40;;;;;;;1999.90;999.90;;;;;;;;;;5048130;27;20527;-60
2022/08/16 08:42:25;;;;;;;1999.90;999.90;;;;;;;;;;5031567;28;20060;-61
2022/08/16 08:45:11;;;;;;;1999.90;999.90;;;;;;;;;;5045481;28;20044;-60
2022/08/16 08:47:56;;;;;;;1999.90;999.90;;;;;;;;;;5030261;28;20063;-62
2022/08/16 08:50:42;;;;;;;1999.90;999.90;;;;;;;;;;5035098;28;20055;-61
2022/08/16 08:53:27;;;;;;;1999.90;999.90;;;;;;;;;;5030414;28;20084;-61
2022/08/16 08:56:12;;;;;;;1999.90;999.90;;;;;;;;;;5038149;28;20061;-62
2022/08/16 08:58:57;;;;;;;1999.90;999.90;;;;;;;;;;5030119;28;20041;-62
2022/08/16 09:01:48;;;;;;;1999.90;999.90;;;;;;;;;;5031963;28;20111;-61
2022/08/16 09:04:33;;;;;;;1999.90;999.90;;;;;;;;;;5029869;28;20107;-61
2022/08/16 09:07:20;;;;;;;1999.90;999.90;;;;;;;;;;5030544;28;20037;-61
2022/08/16 09:10:06;;;;;;;1999.90;999.90;;;;;;;;;;5028919;28;20053;-62
2022/08/16 09:12:51;;;;;;;1999.90;999.90;;;;;;;;;;5039169;28;20371;-62
2022/08/16 09:15:39;;;;;;;1999.90;999.90;;;;;;;;;;5040021;28;20045;-62
2022/08/16 09:18:24;;;;;;;1999.90;999.90;;;;;;;;;;5041294;28;20049;-61
2022/08/16 09:21:09;;;;;;;1999.90;999.90;;;;;;;;;;5034359;28;20080;-62
2022/08/16 09:23:53;;;;;;;1999.90;999.90;;;;;;;;;;5034613;28;20526;-61
2022/08/16 09:26:39;;;;;;;1999.90;999.90;;;;;;;;;;5028640;28;20107;-61
2022/08/16 09:29:24;;;;;;;1999.90;999.90;;;;;;;;;;5039743;28;20057;-62
2022/08/16 09:32:09;;;;;;;1999.90;999.90;;;;;;;;;;5032464;28;20081;-61
2022/08/16 09:34:53;;;;;;;1999.90;999.90;;;;;;;;;;5038706;28;20632;-62
2022/08/16 09:37:38;;;;;;;1999.90;999.90;;;;;;;;;;5038435;28;20084;-62
2022/08/16 09:40:23;;;;;;;1999.90;999.90;;;;;;;;;;5038656;28;20463;-62
2022/08/16 09:43:11;;;;;;;1999.90;999.90;;;;;;;;;;5041000;28;20139;-61
2022/08/16 09:45:55;;;;;;;1999.90;999.90;;;;;;;;;;5039003;28;20395;-62
2022/08/16 09:48:40;;;;;;;1999.90;999.90;;;;;;;;;;5033974;28;20079;-62
2022/08/16 09:51:25;;;;;;;1999.90;999.90;;;;;;;;;;5023394;28;20993;-62
2022/08/16 09:54:09;;;;;;;1999.90;999.90;;;;;;;;;;5020766;28;20041;-61
2022/08/16 09:56:54;;;;;;;1999.90;999.90;;;;;;;;;;5025449;28;20041;-63
2022/08/16 09:59:38;;;;;;;1999.90;999.90;;;;;;;;;;5025823;28;20507;-61
2022/08/16 10:02:24;;;;;;;1999.90;999.90;;;;;;;;;;5028605;28;20044;-62
2022/08/16 10:05:08;;;;;;;1999.90;999.90;;;;;;;;;;5024295;28;20166;-62
2022/08/16 10:07:52;;;;;;;1999.90;999.90;;;;;;;;;;5023277;28;20555;-62
2022/08/16 10:10:40;;;;;;;1999.90;999.90;;;;;;;;;;5026483;28;20091;-63
2022/08/16 10:13:24;;;;;;;1999.90;999.90;;;;;;;;;;5030099;28;20040;-61
2022/08/16 10:16:12;;;;;;;1999.90;999.90;;;;;;;;;;5022489;28;20052;-61
2022/08/16 10:21:08;;;;;;;1999.90;999.90;;;;;;;;;;5103624;27;20207;-62
2022/08/16 10:23:53;;;;;;;1999.90;999.90;;;;;;;;;;5090368;28;20082;-61
2022/08/16 10:26:37;;;;;;;1999.90;999.90;;;;;;;;;;5086609;28;20112;-63
2022/08/16 10:29:22;;;;;;;1999.90;999.90;;;;;;;;;;5089948;28;20101;-63
2022/08/16 10:32:06;;;;;;;1999.90;999.90;;;;;;;;;;5091031;28;20055;-61
2022/08/16 10:34:50;;;;;;;1999.90;999.90;;;;;;;;;;5089344;28;20044;-61
2022/08/16 10:37:34;;;;;;;1999.90;999.90;;;;;;;;;;5089749;28;20040;-62
2022/08/16 10:40:20;;;;;;;1999.90;999.90;;;;;;;;;;5088344;28;20056;-62
2022/08/16 10:43:04;;;;;;;1999.90;999.90;;;;;;;;;;5085069;28;20493;-62
2022/08/16 10:45:50;;;;;;;1999.90;999.90;;;;;;;;;;5087707;28;20075;-61
2022/08/16 10:48:35;;;;;;;1999.90;999.90;;;;;;;;;;5087759;28;20046;-61
2022/08/16 10:51:20;;;;;;;1999.90;999.90;;;;;;;;;;5086497;28;21124;-61
2022/08/16 10:54:04;;;;;;;1999.90;999.90;;;;;;;;;;5086103;28;20031;-62
2022/08/16 10:56:49;;;;;;;1999.90;999.90;;;;;;;;;;5081965;28;20044;-62
2022/08/16 10:59:33;;;;;;;1999.90;999.90;;;;;;;;;;5084900;28;20043;-62
2022/08/16 11:02:18;;;;;;;1999.90;999.90;;;;;;;;;;5085141;28;20081;-61
2022/08/16 11:05:04;;;;;;;1999.90;999.90;;;;;;;;;;5085096;28;20071;-61
2022/08/16 11:07:49;;;;;;;1999.90;999.90;;;;;;;;;;5086260;28;20454;-61
2022/08/16 11:10:34;;;;;;;1999.90;999.90;;;;;;;;;;5077081;28;20108;-61
2022/08/16 11:13:21;;;;;;;1999.90;999.90;;;;;;;;;;5085250;28;20050;-61
2022/08/16 11:16:06;;;;;;;1999.90;999.90;;;;;;;;;;5085473;28;20047;-62
2022/08/16 11:18:50;;;;;;;1999.90;999.90;;;;;;;;;;5084385;28;20039;-62
2022/08/16 11:21:35;;;;;;;1999.90;999.90;;;;;;;;;;5085559;28;20051;-63
2022/08/16 11:24:21;;;;;;;1999.90;999.90;;;;;;;;;;5083504;28;20040;-62
2022/08/16 11:27:07;;;;;;;1999.90;999.90;;;;;;;;;;5083098;28;20188;-62
2022/08/16 11:29:52;;;;;;;1999.90;999.90;;;;;;;;;;5085432;28;20567;-61
2022/08/16 11:32:36;;;;;;;1999.90;999.90;;;;;;;;;;5073595;28;20651;-63
2022/08/16 11:35:23;;;;;;;1999.90;999.90;;;;;;;;;;5075419;28;20710;-63
2022/08/16 11:38:13;;;;;;;1999.90;999.90;;;;;;;;;;5074878;28;20048;-62
2022/08/16 11:40:59;;;;;;;1999.90;999.90;;;;;;;;;;5075364;28;20136;-62
2022/08/16 11:43:43;;;;;;;1999.90;999.90;;;;;;;;;;5074004;28;20503;-64
2022/08/16 11:46:28;;;;;;;1999.90;999.90;;;;;;;;;;5073588;28;20773;-64
2022/08/16 11:49:12;;;;;;;1999.90;999.90;;;;;;;;;;5076001;28;20084;-63
2022/08/16 11:51:57;;;;;;;1999.90;999.90;;;;;;;;;;5073086;28;20071;-65
2022/08/16 11:54:41;;;;;;;1999.90;999.90;;;;;;;;;;5070449;28;20390;-65
2022/08/16 11:57:26;;;;;;;1999.90;999.90;;;;;;;;;;5070984;28;20048;-63
2022/08/16 12:00:13;;;;;;;1999.90;999.90;;;;;;;;;;5070135;28;20106;-64
2022/08/16 12:02:58;;;;;;;1999.90;999.90;;;;;;;;;;5073237;28;20107;-64
2022/08/16 12:05:43;;;;;;;1999.90;999.90;;;;;;;;;;5074932;28;20050;-64
2022/08/16 12:08:29;;;;;;;1999.90;999.90;;;;;;;;;;5072983;28;20040;-63
2022/08/16 12:11:14;;;;;;;1999.90;999.90;;;;;;;;;;5072789;28;20051;-64
2022/08/16 12:14:01;;;;;;;1999.90;999.90;;;;;;;;;;5071658;28;20052;-66
2022/08/16 12:16:45;;;;;;;1999.90;999.90;;;;;;;;;;5069025;28;20520;-62
2022/08/16 12:19:30;;;;;;;1999.90;999.90;;;;;;;;;;5070079;28;20598;-63
2022/08/16 12:22:15;;;;;;;1999.90;999.90;;;;;;;;;;5071420;28;20043;-63
2022/08/16 12:25:00;;;;;;;1999.90;999.90;;;;;;;;;;5069299;28;20044;-62
2022/08/16 12:27:45;;;;;;;1999.90;999.90;;;;;;;;;;5069818;28;20109;-62
2022/08/16 12:30:31;;;;;;;1999.90;999.90;;;;;;;;;;5072134;28;20076;-63
2022/08/16 12:33:15;;;;;;;1999.90;999.90;;;;;;;;;;5063952;28;20044;-64
2022/08/16 12:36:00;;;;;;;1999.90;999.90;;;;;;;;;;5071116;28;20083;-63
2022/08/16 12:38:45;;;;;;;1999.90;999.90;;;;;;;;;;5071936;28;21451;-63
2022/08/16 12:41:31;;;;;;;1999.90;999.90;;;;;;;;;;5072055;28;20071;-63
2022/08/16 12:44:16;;;;;;;1999.90;999.90;;;;;;;;;;5071909;28;20710;-62
2022/08/16 12:50:06;;;;;;;1999.90;999.90;;;;;;;;;;5070592;28;20040;-63
2022/08/16 12:52:51;;;;;;;1999.90;999.90;;;;;;;;;;5068073;28;20041;-63
2022/08/16 12:55:35;;;;;;;1999.90;999.90;;;;;;;;;;5069552;28;20046;-63
2022/08/16 12:58:20;;;;;;;1999.90;999.90;;;;;;;;;;5071764;28;20124;-62